sensor_id;sensor_type;location;lat;lon;timestamp;temperature;humidity
16976;DHT22;8604;48.148;-1.786;2023-04-03T00:01:29;6.50;99.90
16976;DHT22;8604;48.148;-1.786;2023-04-03T00:03:58;6.50;99.90
16976;DHT22;8604;48.148;-1.786;2023-04-03T00:06:26;6.50;99.90
16976;DHT22;8604;48.148;-1.786;2023-04-03T00:08:55;6.40;99.90
16976;DHT22;8604;48.148;-1.786;2023-04-03T00:11:25;6.40;99.90
16976;DHT22;8604;48.148;-1.786;2023-04-03T00:13:53;6.30;99.90
16976;DHT22;8604;48.148;-1.786;2023-04-03T00:16:21;6.30;99.90
16976;DHT22;8604;48.148;-1.786;2023-04-03T00:18:50;6.20;99.90
16976;DHT22;8604;48.148;-1.786;2023-04-03T00:21:18;6.20;99.90
16976;DHT22;8604;48.148;-1.786;2023-04-03T00:23:46;6.10;99.90
16976;DHT22;8604;48.148;-1.786;2023-04-03T00:26:15;6.10;99.90
16976;DHT22;8604;48.148;-1.786;2023-04-03T00:28:45;6.10;99.90
16976;DHT22;8604;48.148;-1.786;2023-04-03T00:31:14;6.00;99.90
16976;DHT22;8604;48.148;-1.786;2023-04-03T00:33:43;6.00;99.90
16976;DHT22;8604;48.148;-1.786;2023-04-03T00:36:12;6.00;99.90
16976;DHT22;8604;48.148;-1.786;2023-04-03T00:38:41;6.00;99.90
16976;DHT22;8604;48.148;-1.786;2023-04-03T00:41:10;5.90;99.90
16976;DHT22;8604;48.148;-1.786;2023-04-03T00:43:41;5.90;99.90
16976;DHT22;8604;48.148;-1.786;2023-04-03T00:46:11;5.90;99.90
16976;DHT22;8604;48.148;-1.786;2023-04-03T00:48:41;5.80;99.90
16976;DHT22;8604;48.148;-1.786;2023-04-03T00:51:13;5.80;99.90
16976;DHT22;8604;48.148;-1.786;2023-04-03T00:53:46;5.80;99.90
16976;DHT22;8604;48.148;-1.786;2023-04-03T00:56:17;5.80;99.90
16976;DHT22;8604;48.148;-1.786;2023-04-03T00:58:52;5.70;99.90
16976;DHT22;8604;48.148;-1.786;2023-04-03T01:01:25;5.70;99.90
16976;DHT22;8604;48.148;-1.786;2023-04-03T01:03:54;5.70;99.90
16976;DHT22;8604;48.148;-1.786;2023-04-03T01:06:27;5.70;99.90
16976;DHT22;8604;48.148;-1.786;2023-04-03T01:09:04;5.70;99.90
16976;DHT22;8604;48.148;-1.786;2023-04-03T01:11:32;5.70;99.90
16976;DHT22;8604;48.148;-1.786;2023-04-03T01:14:02;5.60;99.90
16976;DHT22;8604;48.148;-1.786;2023-04-03T01:16:34;5.60;99.90
16976;DHT22;8604;48.148;-1.786;2023-04-03T01:19:03;5.60;99.90
16976;DHT22;8604;48.148;-1.786;2023-04-03T01:22:10;5.60;99.90
16976;DHT22;8604;48.148;-1.786;2023-04-03T01:24:44;5.60;99.90
16976;DHT22;8604;48.148;-1.786;2023-04-03T01:27:14;5.60;99.90
16976;DHT22;8604;48.148;-1.786;2023-04-03T01:29:43;5.50;99.90
16976;DHT22;8604;48.148;-1.786;2023-04-03T01:32:13;5.50;99.90
16976;DHT22;8604;48.148;-1.786;2023-04-03T01:34:42;5.50;99.90
16976;DHT22;8604;48.148;-1.786;2023-04-03T01:37:10;5.50;99.90
16976;DHT22;8604;48.148;-1.786;2023-04-03T01:39:39;5.50;99.90
16976;DHT22;8604;48.148;-1.786;2023-04-03T01:42:08;5.50;99.90
16976;DHT22;8604;48.148;-1.786;2023-04-03T01:44:41;5.50;99.90
16976;DHT22;8604;48.148;-1.786;2023-04-03T01:47:09;5.40;99.90
16976;DHT22;8604;48.148;-1.786;2023-04-03T01:49:42;5.40;99.90
16976;DHT22;8604;48.148;-1.786;2023-04-03T01:52:11;5.40;99.90
16976;DHT22;8604;48.148;-1.786;2023-04-03T01:54:39;5.30;99.90
16976;DHT22;8604;48.148;-1.786;2023-04-03T01:57:08;5.30;99.90
16976;DHT22;8604;48.148;-1.786;2023-04-03T01:59:37;5.30;99.90
16976;DHT22;8604;48.148;-1.786;2023-04-03T02:02:06;5.30;99.90
16976;DHT22;8604;48.148;-1.786;2023-04-03T02:04:35;5.20;99.90
16976;DHT22;8604;48.148;-1.786;2023-04-03T02:07:05;5.20;99.90
16976;DHT22;8604;48.148;-1.786;2023-04-03T02:09:34;5.20;99.90
16976;DHT22;8604;48.148;-1.786;2023-04-03T02:12:02;5.20;99.90
16976;DHT22;8604;48.148;-1.786;2023-04-03T02:14:32;5.10;99.90
16976;DHT22;8604;48.148;-1.786;2023-04-03T02:17:00;5.00;99.90
16976;DHT22;8604;48.148;-1.786;2023-04-03T02:19:32;5.00;99.90
16976;DHT22;8604;48.148;-1.786;2023-04-03T02:22:00;5.00;99.90
16976;DHT22;8604;48.148;-1.786;2023-04-03T02:24:31;4.90;99.90
16976;DHT22;8604;48.148;-1.786;2023-04-03T02:27:00;4.90;99.90
16976;DHT22;8604;48.148;-1.786;2023-04-03T02:29:28;5.00;99.90
16976;DHT22;8604;48.148;-1.786;2023-04-03T02:31:57;4.90;99.90
16976;DHT22;8604;48.148;-1.786;2023-04-03T02:34:26;4.90;99.90
16976;DHT22;8604;48.148;-1.786;2023-04-03T02:36:55;4.90;99.90
16976;DHT22;8604;48.148;-1.786;2023-04-03T02:39:24;4.90;99.90
16976;DHT22;8604;48.148;-1.786;2023-04-03T02:41:55;4.80;99.90
16976;DHT22;8604;48.148;-1.786;2023-04-03T02:44:25;4.80;99.90
16976;DHT22;8604;48.148;-1.786;2023-04-03T02:46:53;4.80;99.90
16976;DHT22;8604;48.148;-1.786;2023-04-03T02:49:22;4.80;99.90
16976;DHT22;8604;48.148;-1.786;2023-04-03T02:51:51;4.80;99.90
16976;DHT22;8604;48.148;-1.786;2023-04-03T02:54:19;4.80;99.90
16976;DHT22;8604;48.148;-1.786;2023-04-03T02:56:54;4.80;99.90
16976;DHT22;8604;48.148;-1.786;2023-04-03T02:59:23;4.70;99.90
16976;DHT22;8604;48.148;-1.786;2023-04-03T03:01:51;4.80;99.90
16976;DHT22;8604;48.148;-1.786;2023-04-03T03:04:20;4.80;99.90
16976;DHT22;8604;48.148;-1.786;2023-04-03T03:06:48;4.80;99.90
16976;DHT22;8604;48.148;-1.786;2023-04-03T03:09:17;4.80;99.90
16976;DHT22;8604;48.148;-1.786;2023-04-03T03:11:46;4.80;99.90
16976;DHT22;8604;48.148;-1.786;2023-04-03T03:14:16;4.80;99.90
16976;DHT22;8604;48.148;-1.786;2023-04-03T03:16:44;4.90;99.90
16976;DHT22;8604;48.148;-1.786;2023-04-03T03:19:13;4.90;99.90
16976;DHT22;8604;48.148;-1.786;2023-04-03T03:21:41;4.90;99.90
16976;DHT22;8604;48.148;-1.786;2023-04-03T03:24:10;4.90;99.90
16976;DHT22;8604;48.148;-1.786;2023-04-03T03:26:39;5.00;99.90
16976;DHT22;8604;48.148;-1.786;2023-04-03T03:29:07;5.00;99.90
16976;DHT22;8604;48.148;-1.786;2023-04-03T03:31:37;5.00;99.90
16976;DHT22;8604;48.148;-1.786;2023-04-03T03:34:07;5.10;99.90
16976;DHT22;8604;48.148;-1.786;2023-04-03T03:36:35;5.10;99.90
16976;DHT22;8604;48.148;-1.786;2023-04-03T03:39:03;5.10;99.90
16976;DHT22;8604;48.148;-1.786;2023-04-03T03:41:32;5.20;99.90
16976;DHT22;8604;48.148;-1.786;2023-04-03T03:44:00;5.20;99.90
16976;DHT22;8604;48.148;-1.786;2023-04-03T03:46:31;5.30;99.90
16976;DHT22;8604;48.148;-1.786;2023-04-03T03:49:01;5.30;99.90
16976;DHT22;8604;48.148;-1.786;2023-04-03T03:51:29;5.40;99.90
16976;DHT22;8604;48.148;-1.786;2023-04-03T03:53:57;5.40;99.90
16976;DHT22;8604;48.148;-1.786;2023-04-03T03:56:26;5.40;99.90
16976;DHT22;8604;48.148;-1.786;2023-04-03T03:58:55;5.40;99.90
16976;DHT22;8604;48.148;-1.786;2023-04-03T04:01:24;5.40;99.90
16976;DHT22;8604;48.148;-1.786;2023-04-03T04:03:53;5.40;99.90
16976;DHT22;8604;48.148;-1.786;2023-04-03T04:06:27;5.40;99.90
16976;DHT22;8604;48.148;-1.786;2023-04-03T04:09:01;5.30;99.90
16976;DHT22;8604;48.148;-1.786;2023-04-03T04:11:30;5.30;99.90
16976;DHT22;8604;48.148;-1.786;2023-04-03T04:14:00;5.20;99.90
16976;DHT22;8604;48.148;-1.786;2023-04-03T04:16:30;5.20;99.90
16976;DHT22;8604;48.148;-1.786;2023-04-03T04:19:03;5.20;99.90
16976;DHT22;8604;48.148;-1.786;2023-04-03T04:21:37;5.20;99.90
16976;DHT22;8604;48.148;-1.786;2023-04-03T04:24:07;5.10;99.90
16976;DHT22;8604;48.148;-1.786;2023-04-03T04:26:37;5.10;99.90
16976;DHT22;8604;48.148;-1.786;2023-04-03T04:29:09;5.20;99.90
16976;DHT22;8604;48.148;-1.786;2023-04-03T04:31:38;5.10;99.90
16976;DHT22;8604;48.148;-1.786;2023-04-03T04:34:06;5.10;99.90
16976;DHT22;8604;48.148;-1.786;2023-04-03T04:36:38;5.10;99.90
16976;DHT22;8604;48.148;-1.786;2023-04-03T04:39:07;5.10;99.90
16976;DHT22;8604;48.148;-1.786;2023-04-03T04:41:35;5.00;99.90
16976;DHT22;8604;48.148;-1.786;2023-04-03T04:44:05;5.00;99.90
16976;DHT22;8604;48.148;-1.786;2023-04-03T04:46:35;5.00;99.90
16976;DHT22;8604;48.148;-1.786;2023-04-03T04:49:04;4.90;99.90
16976;DHT22;8604;48.148;-1.786;2023-04-03T04:51:33;4.90;99.90
16976;DHT22;8604;48.148;-1.786;2023-04-03T04:54:21;4.80;99.90
16976;DHT22;8604;48.148;-1.786;2023-04-03T04:56:51;4.80;99.90
16976;DHT22;8604;48.148;-1.786;2023-04-03T04:59:20;4.80;99.90
16976;DHT22;8604;48.148;-1.786;2023-04-03T05:01:50;4.80;99.90
16976;DHT22;8604;48.148;-1.786;2023-04-03T05:04:20;4.80;99.90
16976;DHT22;8604;48.148;-1.786;2023-04-03T05:06:53;4.80;99.90
16976;DHT22;8604;48.148;-1.786;2023-04-03T05:09:26;4.80;99.90
16976;DHT22;8604;48.148;-1.786;2023-04-03T05:11:55;4.80;99.90
16976;DHT22;8604;48.148;-1.786;2023-04-03T05:14:27;4.70;99.90
16976;DHT22;8604;48.148;-1.786;2023-04-03T05:17:00;4.70;99.90
16976;DHT22;8604;48.148;-1.786;2023-04-03T05:19:30;4.70;99.90
16976;DHT22;8604;48.148;-1.786;2023-04-03T05:22:00;4.70;99.90
16976;DHT22;8604;48.148;-1.786;2023-04-03T05:24:30;4.70;99.90
16976;DHT22;8604;48.148;-1.786;2023-04-03T05:26:59;4.70;99.90
16976;DHT22;8604;48.148;-1.786;2023-04-03T05:29:29;4.70;99.90
16976;DHT22;8604;48.148;-1.786;2023-04-03T05:31:59;4.70;99.90
16976;DHT22;8604;48.148;-1.786;2023-04-03T05:34:27;4.60;99.90
16976;DHT22;8604;48.148;-1.786;2023-04-03T05:36:56;4.70;99.90
16976;DHT22;8604;48.148;-1.786;2023-04-03T05:39:27;4.60;99.90
16976;DHT22;8604;48.148;-1.786;2023-04-03T05:41:57;4.60;99.90
16976;DHT22;8604;48.148;-1.786;2023-04-03T05:44:26;4.60;99.90
16976;DHT22;8604;48.148;-1.786;2023-04-03T05:47:02;4.60;99.90
16976;DHT22;8604;48.148;-1.786;2023-04-03T05:50:20;4.60;99.90
16976;DHT22;8604;48.148;-1.786;2023-04-03T05:53:02;4.70;99.90
16976;DHT22;8604;48.148;-1.786;2023-04-03T05:55:51;4.60;99.90
16976;DHT22;8604;48.148;-1.786;2023-04-03T05:59:04;4.60;99.90
16976;DHT22;8604;48.148;-1.786;2023-04-03T06:01:44;4.60;99.90
16976;DHT22;8604;48.148;-1.786;2023-04-03T06:04:29;4.60;99.90
16976;DHT22;8604;48.148;-1.786;2023-04-03T06:07:46;4.60;99.90
16976;DHT22;8604;48.148;-1.786;2023-04-03T06:10:38;4.60;99.90
16976;DHT22;8604;48.148;-1.786;2023-04-03T06:13:45;4.70;99.90
16976;DHT22;8604;48.148;-1.786;2023-04-03T06:16:43;4.70;99.90
16976;DHT22;8604;48.148;-1.786;2023-04-03T06:19:35;4.70;99.90
16976;DHT22;8604;48.148;-1.786;2023-04-03T06:22:18;4.80;99.90
16976;DHT22;8604;48.148;-1.786;2023-04-03T06:25:13;4.80;99.90
16976;DHT22;8604;48.148;-1.786;2023-04-03T06:28:43;4.80;99.90
16976;DHT22;8604;48.148;-1.786;2023-04-03T06:31:24;4.90;99.90
16976;DHT22;8604;48.148;-1.786;2023-04-03T06:34:03;4.80;99.90
16976;DHT22;8604;48.148;-1.786;2023-04-03T06:36:58;4.90;99.90
16976;DHT22;8604;48.148;-1.786;2023-04-03T06:39:45;4.90;99.90
16976;DHT22;8604;48.148;-1.786;2023-04-03T06:42:25;4.90;99.90
16976;DHT22;8604;48.148;-1.786;2023-04-03T06:45:34;4.90;99.90
16976;DHT22;8604;48.148;-1.786;2023-04-03T06:48:10;4.90;99.90
16976;DHT22;8604;48.148;-1.786;2023-04-03T06:50:41;4.90;99.90
16976;DHT22;8604;48.148;-1.786;2023-04-03T06:53:09;5.00;99.90
16976;DHT22;8604;48.148;-1.786;2023-04-03T06:55:39;5.10;99.90
16976;DHT22;8604;48.148;-1.786;2023-04-03T06:58:08;5.10;99.90
16976;DHT22;8604;48.148;-1.786;2023-04-03T07:00:37;5.10;99.90
16976;DHT22;8604;48.148;-1.786;2023-04-03T07:03:06;5.20;99.90
16976;DHT22;8604;48.148;-1.786;2023-04-03T07:05:35;5.20;99.90
16976;DHT22;8604;48.148;-1.786;2023-04-03T07:08:05;5.30;99.90
16976;DHT22;8604;48.148;-1.786;2023-04-03T07:10:34;5.30;99.90
16976;DHT22;8604;48.148;-1.786;2023-04-03T07:13:03;5.30;99.90
16976;DHT22;8604;48.148;-1.786;2023-04-03T07:15:31;5.30;99.90
16976;DHT22;8604;48.148;-1.786;2023-04-03T07:18:00;5.30;99.90
16976;DHT22;8604;48.148;-1.786;2023-04-03T07:20:29;5.30;99.90
16976;DHT22;8604;48.148;-1.786;2023-04-03T07:22:57;5.30;99.90
16976;DHT22;8604;48.148;-1.786;2023-04-03T07:25:30;5.20;99.90
16976;DHT22;8604;48.148;-1.786;2023-04-03T07:28:00;5.30;99.90
16976;DHT22;8604;48.148;-1.786;2023-04-03T07:30:29;5.20;99.90
16976;DHT22;8604;48.148;-1.786;2023-04-03T07:32:58;5.30;99.90
16976;DHT22;8604;48.148;-1.786;2023-04-03T07:35:27;5.30;99.90
16976;DHT22;8604;48.148;-1.786;2023-04-03T07:37:55;5.30;99.90
16976;DHT22;8604;48.148;-1.786;2023-04-03T07:40:25;5.30;99.90
16976;DHT22;8604;48.148;-1.786;2023-04-03T07:42:55;5.40;99.90
16976;DHT22;8604;48.148;-1.786;2023-04-03T07:45:31;5.40;99.90
16976;DHT22;8604;48.148;-1.786;2023-04-03T07:48:03;5.50;99.90
16976;DHT22;8604;48.148;-1.786;2023-04-03T07:50:49;5.50;99.90
16976;DHT22;8604;48.148;-1.786;2023-04-03T07:53:18;5.60;99.90
16976;DHT22;8604;48.148;-1.786;2023-04-03T07:55:48;5.60;99.90
16976;DHT22;8604;48.148;-1.786;2023-04-03T07:58:20;5.70;99.90
16976;DHT22;8604;48.148;-1.786;2023-04-03T08:00:49;5.70;99.90
16976;DHT22;8604;48.148;-1.786;2023-04-03T08:03:20;5.70;99.90
16976;DHT22;8604;48.148;-1.786;2023-04-03T08:06:10;5.80;99.90
16976;DHT22;8604;48.148;-1.786;2023-04-03T08:09:15;5.80;99.90
16976;DHT22;8604;48.148;-1.786;2023-04-03T08:12:04;5.90;99.90
16976;DHT22;8604;48.148;-1.786;2023-04-03T08:14:40;6.00;99.90
16976;DHT22;8604;48.148;-1.786;2023-04-03T08:17:09;6.10;99.90
16976;DHT22;8604;48.148;-1.786;2023-04-03T08:19:51;6.20;99.90
16976;DHT22;8604;48.148;-1.786;2023-04-03T08:22:20;6.20;99.90
16976;DHT22;8604;48.148;-1.786;2023-04-03T08:24:49;6.10;99.90
16976;DHT22;8604;48.148;-1.786;2023-04-03T08:27:25;6.20;99.90
16976;DHT22;8604;48.148;-1.786;2023-04-03T08:29:56;6.30;99.90
16976;DHT22;8604;48.148;-1.786;2023-04-03T08:32:25;6.40;99.90
16976;DHT22;8604;48.148;-1.786;2023-04-03T08:34:54;6.50;99.90
16976;DHT22;8604;48.148;-1.786;2023-04-03T08:37:22;6.50;99.90
16976;DHT22;8604;48.148;-1.786;2023-04-03T08:39:57;6.50;99.90
16976;DHT22;8604;48.148;-1.786;2023-04-03T13:35:57;14.20;99.90
16976;DHT22;8604;48.148;-1.786;2023-04-03T13:38:30;14.10;99.90
16976;DHT22;8604;48.148;-1.786;2023-04-03T13:41:03;14.00;99.90
16976;DHT22;8604;48.148;-1.786;2023-04-03T13:43:34;13.90;99.90
16976;DHT22;8604;48.148;-1.786;2023-04-03T13:46:20;13.90;99.90
16976;DHT22;8604;48.148;-1.786;2023-04-03T13:48:51;13.90;99.90
16976;DHT22;8604;48.148;-1.786;2023-04-03T13:51:24;13.80;99.90
16976;DHT22;8604;48.148;-1.786;2023-04-03T13:53:55;13.70;99.90
16976;DHT22;8604;48.148;-1.786;2023-04-03T13:56:30;13.80;99.90
16976;DHT22;8604;48.148;-1.786;2023-04-03T13:59:19;13.80;99.90
16976;DHT22;8604;48.148;-1.786;2023-04-03T14:01:52;13.80;99.90
16976;DHT22;8604;48.148;-1.786;2023-04-03T14:04:24;13.80;99.90
16976;DHT22;8604;48.148;-1.786;2023-04-03T14:06:55;13.70;99.90
16976;DHT22;8604;48.148;-1.786;2023-04-03T14:09:26;13.70;99.90
16976;DHT22;8604;48.148;-1.786;2023-04-03T14:11:58;13.70;99.90
16976;DHT22;8604;48.148;-1.786;2023-04-03T14:14:31;13.60;99.90
16976;DHT22;8604;48.148;-1.786;2023-04-03T14:17:03;13.60;99.90
16976;DHT22;8604;48.148;-1.786;2023-04-03T14:19:52;13.50;99.90
16976;DHT22;8604;48.148;-1.786;2023-04-03T14:22:25;13.40;99.90
16976;DHT22;8604;48.148;-1.786;2023-04-03T14:24:54;13.30;99.90
16976;DHT22;8604;48.148;-1.786;2023-04-03T14:27:25;13.30;99.90
16976;DHT22;8604;48.148;-1.786;2023-04-03T14:29:55;13.30;99.90
16976;DHT22;8604;48.148;-1.786;2023-04-03T14:32:26;13.30;99.90
16976;DHT22;8604;48.148;-1.786;2023-04-03T14:34:55;13.20;99.90
16976;DHT22;8604;48.148;-1.786;2023-04-03T14:37:28;13.20;99.90
16976;DHT22;8604;48.148;-1.786;2023-04-03T14:39:58;13.20;99.90
16976;DHT22;8604;48.148;-1.786;2023-04-03T14:42:30;13.10;99.90
16976;DHT22;8604;48.148;-1.786;2023-04-03T14:45:00;13.10;99.90
16976;DHT22;8604;48.148;-1.786;2023-04-03T14:47:30;13.00;99.90
16976;DHT22;8604;48.148;-1.786;2023-04-03T14:50:00;12.90;99.90
16976;DHT22;8604;48.148;-1.786;2023-04-03T14:52:33;12.90;99.90
16976;DHT22;8604;48.148;-1.786;2023-04-03T14:55:03;12.90;99.90
16976;DHT22;8604;48.148;-1.786;2023-04-03T15:03:25;12.80;99.90
16976;DHT22;8604;48.148;-1.786;2023-04-03T15:05:55;12.80;99.90
16976;DHT22;8604;48.148;-1.786;2023-04-03T15:08:27;12.80;99.90
16976;DHT22;8604;48.148;-1.786;2023-04-03T15:10:58;12.80;99.90
16976;DHT22;8604;48.148;-1.786;2023-04-03T15:13:28;12.80;99.90
16976;DHT22;8604;48.148;-1.786;2023-04-03T15:15:56;12.80;99.90
16976;DHT22;8604;48.148;-1.786;2023-04-03T15:18:27;12.70;99.90
16976;DHT22;8604;48.148;-1.786;2023-04-03T15:20:57;12.70;99.90
16976;DHT22;8604;48.148;-1.786;2023-04-03T15:23:27;12.70;99.90
16976;DHT22;8604;48.148;-1.786;2023-04-03T15:25:57;12.70;99.90
16976;DHT22;8604;48.148;-1.786;2023-04-03T15:28:28;12.70;99.90
16976;DHT22;8604;48.148;-1.786;2023-04-03T15:30:58;12.70;99.90
16976;DHT22;8604;48.148;-1.786;2023-04-03T15:33:28;12.70;99.90
16976;DHT22;8604;48.148;-1.786;2023-04-03T15:35:56;12.70;99.90
16976;DHT22;8604;48.148;-1.786;2023-04-03T15:38:39;12.70;99.90
16976;DHT22;8604;48.148;-1.786;2023-04-03T15:41:08;12.70;99.90
16976;DHT22;8604;48.148;-1.786;2023-04-03T15:43:36;12.70;99.90
16976;DHT22;8604;48.148;-1.786;2023-04-03T15:46:05;12.60;99.90
16976;DHT22;8604;48.148;-1.786;2023-04-03T15:48:34;12.70;99.90
16976;DHT22;8604;48.148;-1.786;2023-04-03T15:51:05;12.60;99.90
16976;DHT22;8604;48.148;-1.786;2023-04-03T15:53:34;12.60;99.90
16976;DHT22;8604;48.148;-1.786;2023-04-03T15:56:04;12.60;99.90
16976;DHT22;8604;48.148;-1.786;2023-04-03T15:58:37;12.60;99.90
16976;DHT22;8604;48.148;-1.786;2023-04-03T16:01:33;12.60;99.90
16976;DHT22;8604;48.148;-1.786;2023-04-03T16:04:02;12.50;99.90
16976;DHT22;8604;48.148;-1.786;2023-04-03T16:06:31;12.50;99.90
16976;DHT22;8604;48.148;-1.786;2023-04-03T16:09:04;12.50;99.90
16976;DHT22;8604;48.148;-1.786;2023-04-03T16:11:34;12.50;99.90
16976;DHT22;8604;48.148;-1.786;2023-04-03T16:14:06;12.50;99.90
16976;DHT22;8604;48.148;-1.786;2023-04-03T16:16:35;12.50;99.90
16976;DHT22;8604;48.148;-1.786;2023-04-03T16:19:05;12.50;99.90
16976;DHT22;8604;48.148;-1.786;2023-04-03T16:21:34;12.40;99.90
16976;DHT22;8604;48.148;-1.786;2023-04-03T16:24:03;12.40;99.90
16976;DHT22;8604;48.148;-1.786;2023-04-03T16:26:34;12.40;99.90
16976;DHT22;8604;48.148;-1.786;2023-04-03T16:29:03;12.40;99.90
16976;DHT22;8604;48.148;-1.786;2023-04-03T16:31:42;12.40;99.90
16976;DHT22;8604;48.148;-1.786;2023-04-03T16:34:13;12.30;99.90
16976;DHT22;8604;48.148;-1.786;2023-04-03T16:36:42;12.40;99.90
16976;DHT22;8604;48.148;-1.786;2023-04-03T16:39:11;12.40;99.90
16976;DHT22;8604;48.148;-1.786;2023-04-03T16:41:41;12.30;99.90
16976;DHT22;8604;48.148;-1.786;2023-04-03T16:44:10;12.30;99.90
16976;DHT22;8604;48.148;-1.786;2023-04-03T16:46:39;12.20;99.90
16976;DHT22;8604;48.148;-1.786;2023-04-03T16:49:08;12.20;99.90
16976;DHT22;8604;48.148;-1.786;2023-04-03T16:51:37;12.20;99.90
16976;DHT22;8604;48.148;-1.786;2023-04-03T16:54:05;12.20;99.90
16976;DHT22;8604;48.148;-1.786;2023-04-03T16:56:36;12.20;99.90
16976;DHT22;8604;48.148;-1.786;2023-04-03T16:59:07;12.20;99.90
16976;DHT22;8604;48.148;-1.786;2023-04-03T17:01:35;12.20;99.90
16976;DHT22;8604;48.148;-1.786;2023-04-03T17:04:05;12.20;99.90
16976;DHT22;8604;48.148;-1.786;2023-04-03T17:06:34;12.20;99.90
16976;DHT22;8604;48.148;-1.786;2023-04-03T17:09:03;12.20;99.90
16976;DHT22;8604;48.148;-1.786;2023-04-03T17:11:31;12.20;99.90
16976;DHT22;8604;48.148;-1.786;2023-04-03T17:14:01;12.20;99.90
16976;DHT22;8604;48.148;-1.786;2023-04-03T17:16:36;12.20;99.90
16976;DHT22;8604;48.148;-1.786;2023-04-03T17:19:05;12.20;99.90
16976;DHT22;8604;48.148;-1.786;2023-04-03T17:21:35;12.10;99.90
16976;DHT22;8604;48.148;-1.786;2023-04-03T17:24:06;12.10;99.90
16976;DHT22;8604;48.148;-1.786;2023-04-03T18:02:22;11.80;99.90
16976;DHT22;8604;48.148;-1.786;2023-04-03T18:08:32;11.70;99.90
16976;DHT22;8604;48.148;-1.786;2023-04-03T18:11:33;11.70;99.90
16976;DHT22;8604;48.148;-1.786;2023-04-03T18:14:18;11.60;99.90
16976;DHT22;8604;48.148;-1.786;2023-04-03T18:16:54;11.60;99.90
16976;DHT22;8604;48.148;-1.786;2023-04-03T18:19:54;11.50;99.90
16976;DHT22;8604;48.148;-1.786;2023-04-03T18:22:41;11.40;99.90
16976;DHT22;8604;48.148;-1.786;2023-04-03T18:25:10;11.40;99.90
16976;DHT22;8604;48.148;-1.786;2023-04-03T18:27:41;11.30;99.90
16976;DHT22;8604;48.148;-1.786;2023-04-03T18:30:14;11.20;99.90
16976;DHT22;8604;48.148;-1.786;2023-04-03T18:33:04;11.20;99.90
16976;DHT22;8604;48.148;-1.786;2023-04-03T18:35:54;11.10;99.90
16976;DHT22;8604;48.148;-1.786;2023-04-03T18:38:28;11.00;99.90
16976;DHT22;8604;48.148;-1.786;2023-04-03T18:40:57;11.00;99.90
16976;DHT22;8604;48.148;-1.786;2023-04-03T18:43:27;10.90;99.90
16976;DHT22;8604;48.148;-1.786;2023-04-03T18:46:06;10.80;99.90
16976;DHT22;8604;48.148;-1.786;2023-04-03T18:48:53;10.80;99.90
16976;DHT22;8604;48.148;-1.786;2023-04-03T19:00:16;10.50;99.90
16976;DHT22;8604;48.148;-1.786;2023-04-03T19:03:05;10.30;99.90
16976;DHT22;8604;48.148;-1.786;2023-04-03T19:06:00;10.30;99.90
16976;DHT22;8604;48.148;-1.786;2023-04-03T19:09:21;10.20;99.90
16976;DHT22;8604;48.148;-1.786;2023-04-03T19:11:58;10.10;99.90
16976;DHT22;8604;48.148;-1.786;2023-04-03T19:14:28;10.00;99.90
16976;DHT22;8604;48.148;-1.786;2023-04-03T19:16:58;9.90;99.90
16976;DHT22;8604;48.148;-1.786;2023-04-03T19:19:28;9.90;99.90
16976;DHT22;8604;48.148;-1.786;2023-04-03T19:21:57;9.80;99.90
16976;DHT22;8604;48.148;-1.786;2023-04-03T19:24:25;9.80;99.90
16976;DHT22;8604;48.148;-1.786;2023-04-03T19:26:54;9.70;99.90
16976;DHT22;8604;48.148;-1.786;2023-04-03T19:29:23;9.70;99.90
16976;DHT22;8604;48.148;-1.786;2023-04-03T19:31:51;9.60;99.90
16976;DHT22;8604;48.148;-1.786;2023-04-03T19:34:21;9.60;99.90
16976;DHT22;8604;48.148;-1.786;2023-04-03T19:36:50;9.50;99.90
16976;DHT22;8604;48.148;-1.786;2023-04-03T19:39:19;9.40;99.90
16976;DHT22;8604;48.148;-1.786;2023-04-03T19:41:48;9.40;99.90
16976;DHT22;8604;48.148;-1.786;2023-04-03T19:44:17;9.30;99.90
16976;DHT22;8604;48.148;-1.786;2023-04-03T19:46:45;9.30;99.90
16976;DHT22;8604;48.148;-1.786;2023-04-03T19:49:18;9.20;99.90
16976;DHT22;8604;48.148;-1.786;2023-04-03T19:52:35;9.10;99.90
16976;DHT22;8604;48.148;-1.786;2023-04-03T19:55:05;9.10;99.90
16976;DHT22;8604;48.148;-1.786;2023-04-03T19:57:33;9.00;99.90
16976;DHT22;8604;48.148;-1.786;2023-04-03T20:00:03;9.00;99.90
16976;DHT22;8604;48.148;-1.786;2023-04-03T20:02:37;8.90;99.90
16976;DHT22;8604;48.148;-1.786;2023-04-03T20:05:06;8.90;99.90
16976;DHT22;8604;48.148;-1.786;2023-04-03T20:07:36;8.80;99.90
16976;DHT22;8604;48.148;-1.786;2023-04-03T20:10:06;8.80;99.90
16976;DHT22;8604;48.148;-1.786;2023-04-03T20:12:34;8.70;99.90
16976;DHT22;8604;48.148;-1.786;2023-04-03T20:15:05;8.70;99.90
16976;DHT22;8604;48.148;-1.786;2023-04-03T20:17:35;8.60;99.90
16976;DHT22;8604;48.148;-1.786;2023-04-03T20:20:06;8.60;99.90
16976;DHT22;8604;48.148;-1.786;2023-04-03T20:22:37;8.50;99.90
16976;DHT22;8604;48.148;-1.786;2023-04-03T20:25:08;8.50;99.90
16976;DHT22;8604;48.148;-1.786;2023-04-03T20:27:37;8.40;99.90
16976;DHT22;8604;48.148;-1.786;2023-04-03T20:30:10;8.40;99.90
16976;DHT22;8604;48.148;-1.786;2023-04-03T20:32:40;8.40;99.90
16976;DHT22;8604;48.148;-1.786;2023-04-03T20:35:09;8.30;99.90
16976;DHT22;8604;48.148;-1.786;2023-04-03T20:37:40;8.20;99.90
16976;DHT22;8604;48.148;-1.786;2023-04-03T20:40:10;8.20;99.90
16976;DHT22;8604;48.148;-1.786;2023-04-03T20:42:39;8.10;99.90
16976;DHT22;8604;48.148;-1.786;2023-04-03T20:45:08;8.10;99.90
16976;DHT22;8604;48.148;-1.786;2023-04-03T20:47:37;8.00;99.90
16976;DHT22;8604;48.148;-1.786;2023-04-03T20:50:07;8.00;99.90
16976;DHT22;8604;48.148;-1.786;2023-04-03T20:52:36;7.90;99.90
16976;DHT22;8604;48.148;-1.786;2023-04-03T20:55:06;7.90;99.90
16976;DHT22;8604;48.148;-1.786;2023-04-03T20:57:35;7.80;99.90
16976;DHT22;8604;48.148;-1.786;2023-04-03T21:00:05;7.80;99.90
16976;DHT22;8604;48.148;-1.786;2023-04-03T21:02:34;7.80;99.90
16976;DHT22;8604;48.148;-1.786;2023-04-03T21:05:05;7.70;99.90
16976;DHT22;8604;48.148;-1.786;2023-04-03T21:19:29;7.50;99.90
16976;DHT22;8604;48.148;-1.786;2023-04-03T21:21:58;7.50;99.90
16976;DHT22;8604;48.148;-1.786;2023-04-03T21:24:27;7.50;99.90
16976;DHT22;8604;48.148;-1.786;2023-04-03T21:26:57;7.40;99.90
16976;DHT22;8604;48.148;-1.786;2023-04-03T21:29:27;7.40;99.90
16976;DHT22;8604;48.148;-1.786;2023-04-03T21:31:57;7.40;99.90
16976;DHT22;8604;48.148;-1.786;2023-04-03T21:34:26;7.30;99.90
16976;DHT22;8604;48.148;-1.786;2023-04-03T21:37:00;7.30;99.90
16976;DHT22;8604;48.148;-1.786;2023-04-03T21:39:29;7.30;99.90
16976;DHT22;8604;48.148;-1.786;2023-04-03T21:41:57;7.20;99.90
16976;DHT22;8604;48.148;-1.786;2023-04-03T21:44:26;7.20;99.90
16976;DHT22;8604;48.148;-1.786;2023-04-03T21:46:55;7.20;99.90
16976;DHT22;8604;48.148;-1.786;2023-04-03T21:49:24;7.30;99.90
16976;DHT22;8604;48.148;-1.786;2023-04-03T21:51:53;7.30;99.90
16976;DHT22;8604;48.148;-1.786;2023-04-03T21:54:23;7.20;99.90
16976;DHT22;8604;48.148;-1.786;2023-04-03T21:56:52;7.20;99.90
16976;DHT22;8604;48.148;-1.786;2023-04-03T21:59:20;7.20;99.90
16976;DHT22;8604;48.148;-1.786;2023-04-03T22:01:49;7.20;99.90
16976;DHT22;8604;48.148;-1.786;2023-04-03T22:04:17;7.10;99.90
16976;DHT22;8604;48.148;-1.786;2023-04-03T22:06:46;7.10;99.90
16976;DHT22;8604;48.148;-1.786;2023-04-03T22:09:15;7.10;99.90
16976;DHT22;8604;48.148;-1.786;2023-04-03T22:11:45;7.00;99.90
16976;DHT22;8604;48.148;-1.786;2023-04-03T22:14:15;7.00;99.90
16976;DHT22;8604;48.148;-1.786;2023-04-03T22:16:44;7.00;99.90